Time;durP1;ratioP1;P1;durP2;ratioP2;P2;SDS_P1;SDS_P2;PMS_P1;PMS_P2;Temp;Humidity;BMP_temperature;BMP_pressure;BME280_temperature;BME280_humidity;BME280_pressure;Samples;Min_cycle;Max_cycle;Signal;HPM_P1;HPM_P2
2021/05/05 00:00:23;;;;;;;4.22;2.60;;;6.70;53.60;;;;;;4958269;28;20034;-86
2021/05/05 00:02:49;;;;;;;;;;;6.70;54.40;;;;;;4958525;28;20135;-88
2021/05/05 00:05:15;;;;;;;3.88;2.53;;;6.60;55.00;;;;;;4958583;28;19938;-85
2021/05/05 00:07:42;;;;;;;3.33;2.40;;;6.60;53.80;;;;;;4958056;28;20038;-85
2021/05/05 00:10:09;;;;;;;3.38;2.03;;;6.60;53.80;;;;;;4982457;28;20413;-85
2021/05/05 00:12:36;;;;;;;3.78;2.33;;;6.60;53.90;;;;;;4978327;28;20073;-85
2021/05/05 00:15:08;;;;;;;3.88;2.33;;;6.60;54.00;;;;;;4975544;28;20027;-85
2021/05/05 00:17:34;;;;;;;3.47;2.33;;;6.60;53.90;;;;;;4975248;28;20030;-86
2021/05/05 00:20:00;;;;;;;3.65;2.13;;;6.60;54.10;;;;;;4938986;29;20062;-87
2021/05/05 00:22:25;;;;;;;2.97;2.10;;;6.60;54.00;;;;;;4958918;28;20462;-88
2021/05/05 00:24:51;;;;;;;4.13;1.85;;;6.60;54.00;;;;;;4977550;28;20031;-88
2021/05/05 00:27:17;;;;;;;4.63;1.85;;;6.60;54.10;;;;;;4957632;28;20031;-88
2021/05/05 00:29:42;;;;;;;2.08;1.85;;;6.60;54.20;;;;;;4957803;28;20420;-88
2021/05/05 00:32:09;;;;;;;3.50;1.85;;;6.60;54.10;;;;;;4957810;28;20058;-88
2021/05/05 00:34:34;;;;;;;2.47;1.75;;;6.60;54.00;;;;;;4975018;28;20026;-88
2021/05/05 00:37:00;;;;;;;3.00;2.10;;;6.60;54.00;;;;;;4975014;28;20037;-88
2021/05/05 00:39:26;;;;;;;4.40;2.35;;;6.60;54.30;;;;;;4957737;28;20058;-89
2021/05/05 00:41:52;;;;;;;4.47;2.70;;;6.50;54.30;;;;;;4957891;28;20027;-89
2021/05/05 00:44:19;;;;;;;3.10;2.20;;;6.50;54.70;;;;;;4975081;28;20030;-88
2021/05/05 00:46:45;;;;;;;3.40;2.58;;;6.50;54.70;;;;;;4957332;28;20030;-89
2021/05/05 00:49:11;;;;;;;3.67;2.50;;;6.50;54.60;;;;;;4957422;28;20125;-89
2021/05/05 00:51:37;;;;;;;2.92;2.00;;;6.50;54.60;;;;;;4957503;28;20114;-89
2021/05/05 00:54:03;;;;;;;4.35;2.47;;;6.50;54.50;;;;;;4957940;28;20034;-90
2021/05/05 00:56:29;;;;;;;3.85;2.33;;;6.50;54.60;;;;;;4957624;28;20477;-89
2021/05/05 00:58:55;;;;;;;3.40;2.20;;;6.50;54.70;;;;;;4974973;28;20031;-88
2021/05/05 01:01:21;;;;;;;2.75;2.20;;;6.50;54.70;;;;;;4974275;28;20037;-90
2021/05/05 01:03:46;;;;;;;2.35;1.98;;;6.50;55.50;;;;;;4974241;28;20074;-89
2021/05/05 01:06:13;;;;;;;2.92;2.10;;;6.50;54.80;;;;;;4976916;28;20042;-90
2021/05/05 01:08:39;;;;;;;2.53;1.75;;;6.50;54.70;;;;;;4961144;28;20031;-88
2021/05/05 01:11:05;;;;;;;2.30;1.77;;;6.50;54.80;;;;;;4961711;28;20038;-89
2021/05/05 01:13:31;;;;;;;3.35;2.10;;;6.50;54.70;;;;;;4961291;28;20030;-89
2021/05/05 01:15:57;;;;;;;3.00;2.03;;;6.50;54.90;;;;;;4978669;28;20090;-90
2021/05/05 01:18:23;;;;;;;2.28;1.77;;;6.50;55.00;;;;;;4978604;28;20102;-89
2021/05/05 01:20:48;;;;;;;3.22;2.20;;;6.50;54.90;;;;;;4978717;28;20113;-89
2021/05/05 01:23:14;;;;;;;3.20;2.22;;;6.50;55.00;;;;;;4978951;28;20444;-88
2021/05/05 01:25:40;;;;;;;2.60;1.90;;;6.50;54.90;;;;;;4978154;28;20039;-88
2021/05/05 01:28:05;;;;;;;2.38;1.92;;;6.50;55.10;;;;;;4961265;28;20136;-88
2021/05/05 01:30:31;;;;;;;2.67;1.80;;;6.50;55.00;;;;;;4960869;28;20035;-88
2021/05/05 01:32:57;;;;;;;2.92;1.88;;;6.40;54.80;;;;;;4978179;28;20026;-88
2021/05/05 01:35:24;;;;;;;2.53;1.90;;;6.40;54.90;;;;;;4978498;28;20031;-88
2021/05/05 01:37:51;;;;;;;2.58;2.00;;;6.40;54.90;;;;;;4961040;28;20037;-89
2021/05/05 01:40:22;;;;;;;3.72;2.30;;;6.40;55.20;;;;;;4960862;28;20027;-88
2021/05/05 01:42:48;;;;;;;3.15;2.30;;;6.30;55.10;;;;;;4978368;28;20342;-90
2021/05/05 01:45:14;;;;;;;4.13;2.30;;;6.30;55.30;;;;;;4960902;28;20082;-90
2021/05/05 01:47:41;;;;;;;3.30;2.30;;;6.30;55.40;;;;;;4961227;28;20052;-89
2021/05/05 01:50:07;;;;;;;3.28;2.30;;;6.30;55.60;;;;;;4978118;28;20121;-89
2021/05/05 01:52:33;;;;;;;3.65;2.20;;;6.30;55.70;;;;;;4978020;28;20039;-90
2021/05/05 01:54:59;;;;;;;2.47;2.03;;;6.30;55.70;;;;;;4960920;28;20027;-90
2021/05/05 01:57:31;;;;;;;3.25;2.00;;;6.30;55.70;;;;;;4962960;28;20049;-89
2021/05/05 01:59:58;;;;;;;2.97;2.28;;;6.30;55.80;;;;;;4987978;28;20090;-89
2021/05/05 02:02:30;;;;;;;3.53;2.20;;;6.30;55.80;;;;;;4991891;28;20027;-89
2021/05/05 02:04:57;;;;;;;5.60;2.92;;;6.20;55.90;;;;;;4996155;28;20023;-89
2021/05/05 02:07:23;;;;;;;5.35;3.05;;;6.20;55.90;;;;;;4983370;28;20034;-87
2021/05/05 02:09:49;;;;;;;7.45;3.10;;;6.20;56.20;;;;;;4984399;28;20077;-89
2021/05/05 02:12:15;;;;;;;3.70;2.60;;;6.20;56.20;;;;;;4984097;28;20018;-85
2021/05/05 02:14:43;;;;;;;4.78;3.05;;;6.10;56.20;;;;;;4969857;28;20027;-87
2021/05/05 02:17:08;;;;;;;5.50;3.38;;;6.10;56.90;;;;;;4977801;28;20199;-87
2021/05/05 02:19:35;;;;;;;6.85;3.60;;;6.10;56.60;;;;;;4960590;28;20144;-88
2021/05/05 02:22:01;;;;;;;6.00;3.50;;;6.10;56.90;;;;;;4977970;28;20035;-87
2021/05/05 02:24:26;;;;;;;4.88;3.30;;;6.10;57.00;;;;;;4977715;28;20031;-88
2021/05/05 02:26:52;;;;;;;5.10;3.55;;;6.10;57.10;;;;;;4959908;28;20038;-89
2021/05/05 02:29:18;;;;;;;6.82;3.85;;;6.10;57.40;;;;;;4960810;28;20031;-89
2021/05/05 02:31:44;;;;;;;7.55;3.63;;;6.10;57.60;;;;;;4977659;28;20034;-89
2021/05/05 02:34:11;;;;;;;5.43;3.50;;;6.10;57.70;;;;;;4960462;28;20031;-90
2021/05/05 02:36:37;;;;;;;5.47;3.30;;;6.10;57.90;;;;;;4960174;28;20042;-90
2021/05/05 02:39:06;;;;;;;5.63;3.42;;;6.10;58.00;;;;;;4959738;28;20054;-91
2021/05/05 02:41:33;;;;;;;5.60;3.42;;;6.20;58.30;;;;;;4959440;28;20045;-91
2021/05/05 02:43:58;;;;;;;7.05;3.25;;;6.20;58.50;;;;;;4960245;28;20054;-88
2021/05/05 02:46:24;;;;;;;4.32;3.20;;;6.20;58.30;;;;;;4977148;28;20070;-89
2021/05/05 02:48:50;;;;;;;5.85;3.30;;;6.20;58.40;;;;;;4977477;28;20034;-87
2021/05/05 02:51:16;;;;;;;7.00;4.00;;;6.20;58.50;;;;;;4983925;28;20038;-91
2021/05/05 02:53:41;;;;;;;6.80;4.30;;;6.30;58.60;;;;;;4989173;28;20019;-88
2021/05/05 02:56:07;;;;;;;8.15;4.50;;;6.30;58.60;;;;;;4982095;28;20124;-88
2021/05/05 02:58:33;;;;;;;6.68;4.22;;;6.30;58.70;;;;;;4959591;28;20038;-88
2021/05/05 03:00:59;;;;;;;7.40;4.03;;;6.30;58.80;;;;;;4977097;28;20473;-88
2021/05/05 03:03:25;;;;;;;5.63;3.60;;;6.40;58.80;;;;;;4959917;28;20023;-89
2021/05/05 03:05:50;;;;;;;5.97;3.38;;;6.30;58.80;;;;;;4959449;28;20031;-88
2021/05/05 03:08:18;;;;;;;6.35;3.72;;;6.30;58.70;;;;;;4977280;28;20385;-88
2021/05/05 03:10:45;;;;;;;4.35;3.00;;;6.40;58.70;;;;;;4976404;28;20038;-88
2021/05/05 03:13:11;;;;;;;4.90;3.05;;;6.40;58.60;;;;;;4976202;28;20031;-87
2021/05/05 03:15:37;;;;;;;4.43;2.95;;;6.40;58.70;;;;;;4959736;28;20031;-88
2021/05/05 03:18:03;;;;;;;5.57;3.20;;;6.40;58.60;;;;;;4959246;28;20038;-87
2021/05/05 03:20:29;;;;;;;4.85;3.10;;;6.50;58.80;;;;;;4959408;28;20034;-88
2021/05/05 03:22:55;;;;;;;5.15;2.80;;;6.50;59.00;;;;;;4976853;28;20031;-88
2021/05/05 03:25:21;;;;;;;6.22;3.00;;;6.60;59.00;;;;;;4958795;28;20023;-89
2021/05/05 03:27:47;;;;;;;4.72;2.80;;;6.60;58.90;;;;;;4976402;28;20034;-89
2021/05/05 03:30:14;;;;;;;5.03;2.95;;;6.60;59.00;;;;;;4975856;28;20597;-88
2021/05/05 03:32:40;;;;;;;5.75;2.92;;;6.60;59.00;;;;;;4959333;28;20113;-92
2021/05/05 03:35:07;;;;;;;4.60;3.15;;;6.70;59.20;;;;;;4958655;28;20086;-91
2021/05/05 03:37:34;;;;;;;5.90;3.53;;;6.70;59.30;;;;;;4991802;28;20396;-89
2021/05/05 03:40:00;;;;;;;6.40;3.70;;;6.80;59.70;;;;;;4997542;28;20133;-88
2021/05/05 03:42:25;;;;;;;5.60;3.70;;;6.90;59.90;;;;;;4979439;28;20465;-89
2021/05/05 03:44:51;;;;;;;5.32;3.58;;;6.90;60.40;;;;;;4977947;28;20031;-89
2021/05/05 03:47:17;;;;;;;6.50;3.50;;;7.00;60.30;;;;;;4994884;28;20094;-88
2021/05/05 03:49:42;;;;;;;5.45;3.63;;;7.10;60.90;;;;;;4994766;28;20404;-86
2021/05/05 03:52:08;;;;;;;4.35;3.05;;;7.20;61.00;;;;;;4994972;28;20030;-88
2021/05/05 03:54:34;;;;;;;5.25;2.92;;;7.30;61.00;;;;;;4995299;28;20380;-87
2021/05/05 03:56:59;;;;;;;5.68;3.35;;;7.40;61.30;;;;;;4977952;28;20040;-87
2021/05/05 03:59:25;;;;;;;5.13;2.97;;;7.50;61.50;;;;;;4977546;28;20027;-88
2021/05/05 04:01:51;;;;;;;3.90;2.60;;;7.60;61.40;;;;;;4994626;28;20026;-88
2021/05/05 04:04:16;;;;;;;4.78;2.92;;;7.70;61.30;;;;;;4995057;28;20022;-89
2021/05/05 04:06:42;;;;;;;5.20;3.42;;;7.80;61.30;;;;;;4994929;28;20030;-88
2021/05/05 04:09:08;;;;;;;4.38;3.05;;;7.80;61.80;;;;;;4977362;28;20080;-89
2021/05/05 04:11:34;;;;;;;6.57;3.20;;;7.90;61.50;;;;;;4961807;28;20030;-89
2021/05/05 04:13:59;;;;;;;4.55;3.17;;;8.00;62.00;;;;;;4995333;28;20026;-90
2021/05/05 04:16:25;;;;;;;5.43;3.17;;;8.10;62.00;;;;;;4977235;28;20026;-89
2021/05/05 04:18:51;;;;;;;6.20;3.45;;;8.20;62.20;;;;;;4977015;28;20030;-91
2021/05/05 04:21:18;;;;;;;5.50;3.22;;;8.30;62.60;;;;;;4994102;28;20469;-89
2021/05/05 04:23:46;;;;;;;3.90;3.10;;;8.30;62.30;;;;;;4976946;28;20076;-89
2021/05/05 04:26:15;;;;;;;5.60;3.28;;;8.40;62.60;;;;;;4976726;28;20030;-89
2021/05/05 04:28:41;;;;;;;3.90;2.80;;;8.50;62.70;;;;;;4995343;28;20384;-92
2021/05/05 04:31:07;;;;;;;4.13;2.78;;;8.60;62.70;;;;;;4994967;28;20022;-88
2021/05/05 04:33:33;;;;;;;6.15;3.40;;;8.70;62.70;;;;;;4994402;28;20061;-88
2021/05/05 04:36:01;;;;;;;6.00;3.45;;;8.80;63.30;;;;;;4976652;28;20053;-89
2021/05/05 04:38:27;;;;;;;4.65;3.30;;;8.90;63.80;;;;;;4989785;28;20108;-88
2021/05/05 04:40:52;;;;;;;5.22;3.17;;;9.00;64.00;;;;;;4993500;28;20413;-87
2021/05/05 04:43:18;;;;;;;3.60;2.90;;;9.20;63.90;;;;;;4976798;28;20077;-85
2021/05/05 04:45:44;;;;;;;4.55;3.28;;;9.30;63.70;;;;;;4978690;28;20033;-87
2021/05/05 04:48:11;;;;;;;3.75;2.72;;;9.40;63.70;;;;;;4977824;28;20076;-85
2021/05/05 04:50:36;;;;;;;4.93;3.05;;;9.60;63.70;;;;;;4978813;28;20026;-87
2021/05/05 04:53:02;;;;;;;6.97;3.42;;;9.80;64.20;;;;;;4996475;28;20030;-86
2021/05/05 04:55:28;;;;;;;5.05;3.42;;;9.90;64.30;;;;;;4978432;28;20053;-87
2021/05/05 04:57:56;;;;;;;5.93;3.40;;;10.00;64.30;;;;;;4996307;28;20085;-87
2021/05/05 05:00:23;;;;;;;4.70;3.20;;;10.20;64.50;;;;;;4996167;28;20069;-87
2021/05/05 05:02:48;;;;;;;4.43;2.95;;;10.30;64.10;;;;;;4977018;28;20081;-89
2021/05/05 05:05:14;;;;;;;6.82;3.35;;;10.50;64.70;;;;;;4976342;28;20408;-89
2021/05/05 05:07:40;;;;;;;5.40;3.55;;;10.70;65.40;;;;;;4976337;28;20034;-89
2021/05/05 05:10:07;;;;;;;4.93;3.00;;;10.90;66.40;;;;;;4993979;28;20113;-86
2021/05/05 05:12:32;;;;;;;4.50;3.25;;;11.10;65.90;;;;;;4976380;28;20030;-89
2021/05/05 05:14:58;;;;;;;4.55;2.90;;;11.30;66.00;;;;;;4976379;28;20053;-92
2021/05/05 05:17:24;;;;;;;5.22;3.05;;;11.50;65.70;;;;;;4993986;28;20030;-86
2021/05/05 05:19:50;;;;;;;100.63;61.70;;;11.70;65.50;;;;;;4994557;28;20034;-88
2021/05/05 05:22:16;;;;;;;26.55;17.25;;;11.90;65.00;;;;;;4977260;28;20026;-86
2021/05/05 05:24:41;;;;;;;13.95;8.70;;;12.20;64.40;;;;;;4977508;28;20034;-89
2021/05/05 05:27:07;;;;;;;9.23;4.88;;;12.40;63.90;;;;;;4977025;28;20042;-88
2021/05/05 05:29:33;;;;;;;5.43;3.80;;;12.60;63.30;;;;;;4995281;28;20053;-90
2021/05/05 05:31:59;;;;;;;5.82;4.22;;;12.70;62.90;;;;;;4996570;28;20019;-93
2021/05/05 05:34:24;;;;;;;8.00;4.05;;;12.80;62.60;;;;;;4994481;28;20023;-88
2021/05/05 05:36:50;;;;;;;4.68;3.30;;;12.90;62.40;;;;;;4994224;28;20031;-87
2021/05/05 05:39:16;;;;;;;4.80;3.20;;;13.00;62.00;;;;;;4976493;28;20050;-89
2021/05/05 05:41:42;;;;;;;4.78;3.10;;;13.00;61.70;;;;;;4994193;28;20040;-89
2021/05/05 05:44:08;;;;;;;4.68;2.80;;;13.00;61.70;;;;;;4993969;28;20022;-89
2021/05/05 05:46:38;;;;;;;5.75;3.00;;;13.00;61.70;;;;;;4978793;28;20066;-87
2021/05/05 05:49:11;;;;;;;4.65;3.08;;;13.00;61.50;;;;;;5000842;28;20065;-88
2021/05/05 05:51:39;;;;;;;7.25;3.40;;;13.00;61.40;;;;;;4999009;28;20369;-86
2021/05/05 05:54:06;;;;;;;9.05;3.85;;;13.10;61.30;;;;;;5004633;28;20026;-86
2021/05/05 05:56:32;;;;;;;7.38;4.90;;;13.10;61.00;;;;;;5006702;28;20152;-86
2021/05/05 05:58:57;;;;;;;7.38;3.90;;;13.00;61.00;;;;;;4981656;28;20058;-89
2021/05/05 06:01:23;;;;;;;4.65;3.20;;;12.90;61.30;;;;;;4979543;28;20093;-87
2021/05/05 06:03:49;;;;;;;4.47;3.20;;;12.90;61.50;;;;;;4997279;28;20457;-89
2021/05/05 06:06:15;;;;;;;4.93;2.90;;;12.90;61.60;;;;;;4997050;28;20097;-89
2021/05/05 06:08:40;;;;;;;139.10;73.90;;;13.00;61.60;;;;;;4979547;28;20457;-89
2021/05/05 06:11:06;;;;;;;163.93;100.93;;;13.10;61.70;;;;;;4979101;28;20113;-86
2021/05/05 06:13:35;;;;;;;49.25;30.92;;;13.20;61.30;;;;;;4996510;28;20088;-86
2021/05/05 06:16:00;;;;;;;18.67;11.77;;;13.40;61.00;;;;;;4996807;28;20030;-88
2021/05/05 06:18:26;;;;;;;9.05;6.00;;;13.50;60.90;;;;;;4995240;28;20038;-87
2021/05/05 06:20:53;;;;;;;9.05;5.30;;;13.60;60.70;;;;;;4996506;28;20076;-87
2021/05/05 06:23:19;;;;;;;6.70;4.50;;;13.60;60.60;;;;;;4979500;28;20026;-89
2021/05/05 06:25:45;;;;;;;9.32;4.07;;;13.60;60.50;;;;;;4979506;28;20519;-88
2021/05/05 06:28:11;;;;;;;6.63;3.40;;;13.70;60.50;;;;;;4979452;28;20031;-87
2021/05/05 06:30:36;;;;;;;4.07;2.63;;;13.80;60.60;;;;;;4975467;28;20055;-86
2021/05/05 06:33:05;;;;;;;5.75;2.72;;;13.80;60.50;;;;;;4975112;28;20037;-88
2021/05/05 06:35:31;;;;;;;7.57;3.60;;;13.90;60.40;;;;;;4992690;28;20030;-88
2021/05/05 06:37:57;;;;;;;6.45;3.25;;;13.90;60.30;;;;;;4992212;28;20387;-87
2021/05/05 06:40:23;;;;;;;5.82;3.20;;;14.00;60.30;;;;;;4974989;28;20033;-88
2021/05/05 06:42:48;;;;;;;3.70;2.58;;;14.10;60.20;;;;;;4975048;28;20025;-88
2021/05/05 06:45:14;;;;;;;5.25;2.60;;;14.10;60.00;;;;;;4995781;28;20366;-87
2021/05/05 06:47:40;;;;;;;3.22;2.53;;;14.20;60.10;;;;;;4978813;28;20085;-88
2021/05/05 06:50:10;;;;;;;4.25;2.55;;;14.30;59.80;;;;;;4978880;28;20027;-88
2021/05/05 06:52:36;;;;;;;6.28;2.45;;;14.50;59.60;;;;;;4978877;28;20032;-87
2021/05/05 06:55:03;;;;;;;8.07;2.80;;;14.60;59.50;;;;;;4978929;28;20489;-88
2021/05/05 06:57:29;;;;;;;5.57;2.63;;;14.70;59.00;;;;;;4996397;28;20036;-89
2021/05/05 06:59:55;;;;;;;3.40;2.70;;;14.80;58.90;;;;;;4978740;28;20524;-87
2021/05/05 07:02:20;;;;;;;4.85;2.65;;;14.80;59.00;;;;;;4996075;28;20081;-87
2021/05/05 07:04:47;;;;;;;5.22;2.90;;;14.90;58.80;;;;;;4994948;28;20457;-87
2021/05/05 07:07:12;;;;;;;4.93;2.67;;;14.90;58.60;;;;;;4978414;28;20445;-88
2021/05/05 07:09:38;;;;;;;3.33;2.33;;;15.00;58.30;;;;;;4978462;28;20084;-89
2021/05/05 07:12:05;;;;;;;5.57;2.63;;;15.10;58.20;;;;;;4978378;28;20030;-88
2021/05/05 07:14:30;;;;;;;5.10;2.20;;;15.10;57.80;;;;;;4995915;28;20480;-87
2021/05/05 07:16:56;;;;;;;2.45;2.10;;;15.20;57.90;;;;;;4977930;28;20034;-87
2021/05/05 07:19:22;;;;;;;3.28;2.47;;;15.40;57.90;;;;;;4977748;28;20026;-88
2021/05/05 07:21:47;;;;;;;3.80;2.30;;;15.50;57.50;;;;;;4958677;28;20453;-89
2021/05/05 07:24:13;;;;;;;5.65;2.65;;;15.60;57.30;;;;;;4959281;28;20043;-89
2021/05/05 07:26:39;;;;;;;3.38;2.20;;;15.70;56.80;;;;;;4976063;28;20389;-89
2021/05/05 07:29:05;;;;;;;2.65;1.90;;;15.90;56.90;;;;;;4976041;28;20050;-88
2021/05/05 07:31:31;;;;;;;4.30;2.60;;;16.00;56.70;;;;;;4975929;28;20035;-89
2021/05/05 07:33:58;;;;;;;3.72;2.10;;;16.20;56.40;;;;;;4960319;28;20501;-88
2021/05/05 07:36:28;;;;;;;3.08;1.88;;;16.40;55.70;;;;;;4957897;28;20077;-88
2021/05/05 07:49:26;;;;;;;4.88;2.40;;;16.90;53.80;;;;;;4975881;28;20377;-89
2021/05/05 07:51:52;;;;;;;2.92;2.08;;;17.00;53.00;;;;;;4975722;28;20027;-88
2021/05/05 07:54:19;;;;;;;6.07;2.40;;;17.20;52.90;;;;;;4958429;28;20026;-88
2021/05/05 07:56:46;;;;;;;3.65;1.98;;;17.30;52.10;;;;;;4957878;28;20034;-87
2021/05/05 07:59:12;;;;;;;4.45;2.30;;;17.40;52.30;;;;;;4975762;28;20382;-87
2021/05/05 08:01:38;;;;;;;5.35;2.30;;;17.60;51.20;;;;;;4958332;28;20041;-89
2021/05/05 08:04:05;;;;;;;3.45;1.73;;;17.60;51.10;;;;;;4958212;28;20125;-88
2021/05/05 08:06:31;;;;;;;2.97;1.70;;;17.70;51.40;;;;;;4975515;28;20073;-87
2021/05/05 08:08:58;;;;;;;3.72;1.95;;;17.90;51.60;;;;;;4975555;28;20042;-89
2021/05/05 08:11:24;;;;;;;3.10;1.80;;;18.20;51.40;;;;;;4958008;28;20066;-88
2021/05/05 08:13:51;;;;;;;5.40;1.73;;;18.50;51.70;;;;;;4975718;28;20034;-88
2021/05/05 08:16:18;;;;;;;1.90;1.60;;;18.90;51.70;;;;;;4958144;28;20030;-89
2021/05/05 08:18:44;;;;;;;4.55;1.73;;;19.30;50.20;;;;;;4958112;28;20026;-89
2021/05/05 08:21:11;;;;;;;3.08;2.17;;;19.60;50.00;;;;;;4974273;28;20027;-88
2021/05/05 08:23:38;;;;;;;5.07;1.85;;;20.00;48.60;;;;;;4957911;28;20035;-89
2021/05/05 08:26:05;;;;;;;4.10;1.88;;;20.10;48.40;;;;;;4957728;28;20038;-88
2021/05/05 08:28:32;;;;;;;5.72;1.98;;;20.30;48.50;;;;;;4957511;28;20045;-89
2021/05/05 08:30:58;;;;;;;4.28;1.60;;;20.50;46.80;;;;;;4975332;28;20553;-87
2021/05/05 08:33:24;;;;;;;2.83;1.65;;;20.70;45.90;;;;;;4975858;28;20062;-88
2021/05/05 08:35:51;;;;;;;5.15;1.58;;;21.00;45.80;;;;;;4960679;28;20029;-88
2021/05/05 08:38:16;;;;;;;2.33;1.50;;;21.20;45.90;;;;;;4957631;28;20070;-88
2021/05/05 08:40:43;;;;;;;4.13;2.10;;;21.40;44.50;;;;;;4975070;28;20031;-87
2021/05/05 08:43:08;;;;;;;7.30;2.92;;;21.40;43.60;;;;;;4957985;28;20130;-88
2021/05/05 08:45:35;;;;;;;4.88;2.70;;;21.30;43.30;;;;;;4957724;28;20059;-90
2021/05/05 08:48:04;;;;;;;7.30;2.40;;;21.10;42.90;;;;;;4975004;28;20038;-89
2021/05/05 08:50:32;;;;;;;3.85;1.75;;;20.90;43.30;;;;;;4974858;28;20039;-89
2021/05/05 08:52:58;;;;;;;4.30;2.17;;;20.80;43.90;;;;;;4975007;28;20033;-88
2021/05/05 08:55:25;;;;;;;3.78;1.60;;;20.90;44.00;;;;;;4957740;28;20031;-88
2021/05/05 08:57:52;;;;;;;4.15;1.50;;;21.00;44.10;;;;;;4975601;28;20110;-88
2021/05/05 09:00:28;;;;;;;2.95;1.60;;;21.10;44.10;;;;;;4957719;28;20026;-87
2021/05/05 09:02:56;;;;;;;5.85;1.90;;;21.20;42.90;;;;;;4959565;28;20481;-90
2021/05/05 09:05:22;;;;;;;3.72;1.70;;;21.10;43.20;;;;;;4959150;28;20462;-87
2021/05/05 09:07:48;;;;;;;3.05;1.90;;;21.00;43.40;;;;;;4960333;28;20432;-86
2021/05/05 09:10:20;;;;;;;2.60;1.75;;;20.90;43.10;;;;;;4957810;28;20038;-87
2021/05/05 09:12:49;;;;;;;6.55;1.67;;;20.80;43.30;;;;;;4975845;28;20023;-87
2021/05/05 09:15:19;;;;;;;2.63;1.58;;;20.80;43.70;;;;;;4958300;28;20027;-86
2021/05/05 09:17:53;;;;;;;6.35;1.90;;;20.90;43.80;;;;;;4957917;28;20035;-87
2021/05/05 09:20:25;;;;;;;4.07;1.65;;;21.10;44.00;;;;;;4975692;28;20497;-87
2021/05/05 09:23:05;;;;;;;4.45;1.83;;;21.40;43.00;;;;;;4975646;28;20031;-88
2021/05/05 09:25:31;;;;;;;3.70;2.05;;;21.50;42.70;;;;;;4976200;28;20062;-87
2021/05/05 09:28:12;;;;;;;5.18;2.03;;;21.50;42.80;;;;;;4980566;28;20050;-85
2021/05/05 09:30:52;;;;;;;4.43;2.08;;;21.60;42.50;;;;;;4986592;28;20037;-89
2021/05/05 09:33:25;;;;;;;8.45;2.08;;;21.80;41.30;;;;;;4983112;28;20051;-89
2021/05/05 09:35:56;;;;;;;3.88;1.80;;;22.00;41.70;;;;;;4961392;28;20418;-89
2021/05/05 09:38:37;;;;;;;3.78;1.80;;;22.20;41.30;;;;;;4978074;28;20485;-89
2021/05/05 09:41:02;;;;;;;4.43;1.60;;;22.30;40.30;;;;;;4961162;28;20029;-89
2021/05/05 09:43:38;;;;;;;3.55;1.90;;;22.30;40.10;;;;;;4961025;28;20436;-88
2021/05/05 09:46:23;;;;;;;3.53;1.85;;;22.20;40.50;;;;;;4960772;28;20110;-89
2021/05/05 09:48:49;;;;;;;4.50;1.70;;;22.40;41.30;;;;;;4978261;28;20038;-88
2021/05/05 09:51:15;;;;;;;5.88;1.88;;;22.80;40.80;;;;;;4978469;28;20371;-89
2021/05/05 09:53:41;;;;;;;2.88;1.77;;;23.20;41.00;;;;;;4977994;28;20102;-87
2021/05/05 09:56:11;;;;;;;4.85;2.20;;;23.80;39.10;;;;;;4960828;28;20031;-88
2021/05/05 09:58:42;;;;;;;3.70;1.80;;;24.00;37.70;;;;;;4961089;28;20022;-89
2021/05/05 10:01:20;;;;;;;4.85;1.98;;;23.80;37.50;;;;;;4960591;28;20466;-88
2021/05/05 10:03:54;;;;;;;4.10;1.70;;;23.30;37.60;;;;;;4977923;28;20110;-89
2021/05/05 10:06:22;;;;;;;7.18;1.85;;;22.80;38.40;;;;;;4977510;28;20030;-88
2021/05/05 10:09:05;;;;;;;4.10;2.17;;;22.30;39.30;;;;;;4977690;28;20101;-89
2021/05/05 10:11:39;;;;;;;3.67;1.92;;;22.30;39.30;;;;;;4960639;28;20326;-90
2021/05/05 10:14:06;;;;;;;2.20;1.52;;;22.50;39.40;;;;;;4960857;28;20046;-90
2021/05/05 10:16:46;;;;;;;2.40;1.75;;;22.50;39.40;;;;;;4960991;28;20117;-89
2021/05/05 10:19:14;;;;;;;2.88;1.58;;;22.30;39.40;;;;;;4960807;28;20061;-90
2021/05/05 10:21:49;;;;;;;2.53;1.70;;;22.10;40.30;;;;;;4959785;28;20118;-90
2021/05/05 10:24:16;;;;;;;3.20;2.13;;;22.50;40.80;;;;;;4959733;28;20034;-90
2021/05/05 10:26:42;;;;;;;4.47;1.70;;;22.90;39.50;;;;;;4981034;28;20031;-91
2021/05/05 10:29:09;;;;;;;2.03;1.63;;;22.90;39.30;;;;;;4980295;28;20034;-89
2021/05/05 10:31:36;;;;;;;3.20;1.73;;;22.90;39.50;;;;;;4977263;28;20106;-89
2021/05/05 10:34:14;;;;;;;8.48;2.42;;;22.90;39.70;;;;;;4960038;28;20386;-89
2021/05/05 10:36:46;;;;;;;2.83;1.60;;;23.00;38.70;;;;;;4959497;28;20039;-89
2021/05/05 10:39:15;;;;;;;6.05;1.90;;;22.70;39.00;;;;;;4959312;28;20058;-87
2021/05/05 10:41:41;;;;;;;2.45;1.80;;;22.40;39.40;;;;;;4960045;28;20027;-89
2021/05/05 10:44:07;;;;;;;3.67;1.60;;;22.20;40.00;;;;;;4959974;28;20023;-86
2021/05/05 10:46:35;;;;;;;3.25;1.60;;;22.20;40.20;;;;;;4959709;28;20046;-86
2021/05/05 10:49:13;;;;;;;2.30;1.60;;;22.20;40.00;;;;;;4959877;28;20061;-88
2021/05/05 10:51:45;;;;;;;3.20;1.83;;;22.20;40.60;;;;;;4977237;28;20030;-88
2021/05/05 10:54:15;;;;;;;2.88;1.80;;;22.60;40.50;;;;;;4977327;28;20478;-89
2021/05/05 10:56:44;;;;;;;3.05;1.60;;;23.20;39.70;;;;;;4959875;28;20031;-89
2021/05/05 10:59:11;;;;;;;1.88;1.63;;;23.60;38.80;;;;;;4959656;28;20038;-90
2021/05/05 11:01:45;;;;;;;4.28;1.85;;;23.70;38.00;;;;;;4959397;28;20469;-90
2021/05/05 11:04:15;;;;;;;2.83;1.70;;;23.50;38.40;;;;;;4959797;28;20023;-91
2021/05/05 11:06:46;;;;;;;5.18;1.55;;;23.60;38.30;;;;;;4976553;28;20050;-89
2021/05/05 11:09:12;;;;;;;3.42;1.60;;;23.60;37.80;;;;;;4959304;28;20049;-89
2021/05/05 11:11:39;;;;;;;1.98;1.38;;;23.60;37.20;;;;;;4976635;28;20023;-89
2021/05/05 11:14:06;;;;;;;4.70;1.98;;;23.40;37.70;;;;;;4976473;28;20026;-88
2021/05/05 11:16:54;;;;;;;6.28;2.13;;;23.50;38.10;;;;;;4976293;28;20114;-88
2021/05/05 11:19:41;;;;;;;3.65;1.50;;;23.40;37.80;;;;;;4976643;28;20097;-89
2021/05/05 11:22:33;;;;;;;3.45;1.95;;;23.60;37.80;;;;;;4977143;28;20035;-89
2021/05/05 11:25:18;;;;;;;2.05;1.58;;;23.40;37.30;;;;;;4959935;28;20035;-89
2021/05/05 11:27:46;;;;;;;5.47;2.03;;;23.70;37.80;;;;;;4961080;28;20210;-90
2021/05/05 11:30:38;;;;;;;5.15;1.70;;;23.90;37.70;;;;;;4978125;28;20116;-90
2021/05/05 11:33:09;;;;;;;6.88;1.77;;;24.10;37.00;;;;;;4960692;28;20112;-88
2021/05/05 11:35:38;;;;;;;6.32;1.70;;;24.10;36.60;;;;;;4960107;28;20031;-88
2021/05/05 11:38:07;;;;;;;5.50;1.92;;;24.10;36.60;;;;;;4959672;28;20135;-88
2021/05/05 11:40:33;;;;;;;4.45;2.00;;;24.30;37.10;;;;;;4959028;28;20086;-89
2021/05/05 11:42:59;;;;;;;5.15;1.85;;;24.70;37.10;;;;;;4959344;28;20470;-87
2021/05/05 11:45:24;;;;;;;4.88;1.98;;;24.90;36.20;;;;;;4960139;28;20081;-89
2021/05/05 11:47:50;;;;;;;3.25;1.60;;;24.70;35.40;;;;;;4979799;28;20473;-90
2021/05/05 11:50:20;;;;;;;3.60;1.67;;;24.10;35.90;;;;;;4961264;28;20433;-90
2021/05/05 11:52:48;;;;;;;3.03;1.67;;;23.70;36.60;;;;;;4977758;28;20488;-90
2021/05/05 11:55:18;;;;;;;2.90;1.83;;;23.40;37.50;;;;;;4959675;28;20038;-91
2021/05/05 11:57:58;;;;;;;3.65;2.10;;;23.40;38.20;;;;;;4976504;28;20030;-90
2021/05/05 12:00:28;;;;;;;2.13;1.50;;;23.90;37.80;;;;;;4959271;28;20030;-90
2021/05/05 12:02:56;;;;;;;2.85;1.88;;;24.40;37.70;;;;;;4976302;28;20035;-90
2021/05/05 12:05:37;;;;;;;3.85;1.23;;;24.70;36.20;;;;;;4959111;28;20027;-89
2021/05/05 12:08:05;;;;;;;3.33;1.70;;;24.30;36.00;;;;;;4977890;28;20027;-89
2021/05/05 12:10:36;;;;;;;1.85;1.50;;;23.80;36.30;;;;;;4959945;28;20038;-90
2021/05/05 12:13:06;;;;;;;3.97;1.73;;;23.10;37.20;;;;;;4977642;28;20440;-88
2021/05/05 12:15:34;;;;;;;2.03;1.50;;;22.70;38.20;;;;;;4978318;28;20038;-87
2021/05/05 12:18:05;;;;;;;3.08;1.80;;;22.30;38.90;;;;;;4977657;28;20048;-88
2021/05/05 12:20:31;;;;;;;4.97;1.88;;;22.30;39.30;;;;;;4959085;28;20031;-89
2021/05/05 12:22:59;;;;;;;6.60;2.03;;;22.40;39.30;;;;;;4959317;28;20034;-88
2021/05/05 12:25:29;;;;;;;3.10;1.90;;;22.50;39.00;;;;;;4976223;28;20480;-87
2021/05/05 12:28:13;;;;;;;3.60;2.00;;;22.60;38.90;;;;;;4975629;28;20023;-86
2021/05/05 12:30:49;;;;;;;4.10;2.00;;;22.50;38.50;;;;;;4959467;28;20043;-89
2021/05/05 12:33:38;;;;;;;2.10;1.60;;;22.20;38.80;;;;;;4959204;28;20058;-88
2021/05/05 12:36:15;;;;;;;4.78;2.13;;;22.00;39.10;;;;;;4959596;28;20084;-88
2021/05/05 12:38:43;;;;;;;7.80;2.22;;;21.80;39.40;;;;;;4957469;28;20082;-89
2021/05/05 12:41:18;;;;;;;4.63;2.33;;;21.60;39.60;;;;;;4975205;28;20078;-88
2021/05/05 12:43:49;;;;;;;4.43;1.92;;;21.40;40.10;;;;;;4958070;28;20485;-87
2021/05/05 12:46:27;;;;;;;6.35;2.08;;;21.20;40.50;;;;;;4975692;28;20034;-88
2021/05/05 12:48:54;;;;;;;2.92;1.63;;;21.10;41.10;;;;;;4975804;28;20161;-88
2021/05/05 12:51:24;;;;;;;4.18;1.52;;;21.10;40.80;;;;;;4958372;28;20058;-87
2021/05/05 12:53:52;;;;;;;3.25;1.65;;;21.20;40.90;;;;;;4958247;28;20372;-88
2021/05/05 12:56:22;;;;;;;3.58;1.50;;;21.30;40.80;;;;;;4960673;28;20073;-88
2021/05/05 12:58:56;;;;;;;;;;;21.70;40.30;;;;;;4978038;28;20034;-88
2021/05/05 13:01:38;;;;;;;4.65;1.70;;;21.80;40.00;;;;;;4958212;28;20364;-88
2021/05/05 13:04:04;;;;;;;3.97;1.55;;;22.10;39.50;;;;;;4958544;28;20130;-88